Time;durP1;ratioP1;P1;durP2;ratioP2;P2;SDS_P1;SDS_P2;PMS_P1;PMS_P2;Temp;Humidity;BMP_temperature;BMP_pressure;BME280_temperature;BME280_humidity;BME280_pressure;Samples;Min_cycle;Max_cycle;Signal;HPM_P1;HPM_P2
2022/10/20 00:01:37;;;;;;;0.00;0.00;;;4.40;99.90;;;;;;5116843;28;20035;-77
2022/10/20 00:04:03;;;;;;;0.00;0.00;;;4.50;99.90;;;;;;5116120;28;20020;-77
2022/10/20 00:06:32;;;;;;;0.00;0.00;;;4.40;99.90;;;;;;5116038;28;20026;-77
2022/10/20 00:09:00;;;;;;;0.00;0.00;;;4.40;99.90;;;;;;5116056;28;20051;-77
2022/10/20 00:11:28;;;;;;;0.00;0.00;;;4.50;99.90;;;;;;5116278;28;20522;-77
2022/10/20 00:13:55;;;;;;;0.00;0.00;;;4.40;99.90;;;;;;5115993;28;20049;-77
2022/10/20 00:16:24;;;;;;;0.20;0.20;;;4.40;99.90;;;;;;5097849;28;20034;-76
2022/10/20 00:18:50;;;;;;;0.00;0.00;;;4.40;99.90;;;;;;5115860;28;20031;-77
2022/10/20 00:21:19;;;;;;;0.00;0.00;;;4.40;99.90;;;;;;5097484;28;20055;-76
2022/10/20 00:23:46;;;;;;;0.00;0.00;;;4.30;99.90;;;;;;5115454;28;20031;-77
2022/10/20 00:26:14;;;;;;;0.00;0.00;;;4.30;99.90;;;;;;5115691;28;20028;-78
2022/10/20 00:28:40;;;;;;;0.00;0.00;;;4.20;99.90;;;;;;5115348;28;20027;-77
2022/10/20 00:31:06;;;;;;;0.63;0.63;;;4.10;99.90;;;;;;5116151;28;20032;-77
2022/10/20 00:33:33;;;;;;;0.00;0.00;;;4.20;99.90;;;;;;5115651;28;20032;-78
2022/10/20 00:36:00;;;;;;;0.00;0.00;;;4.20;99.90;;;;;;5115568;28;20474;-77
2022/10/20 00:38:26;;;;;;;7.65;4.13;;;4.20;99.90;;;;;;5097546;28;20027;-77
2022/10/20 00:40:52;;;;;;;0.00;0.00;;;4.20;99.90;;;;;;5115044;28;20149;-77
2022/10/20 00:43:20;;;;;;;0.00;0.00;;;4.20;99.90;;;;;;5114940;28;20047;-77
2022/10/20 00:45:54;;;;;;;0.00;0.00;;;4.20;99.90;;;;;;5097061;28;20030;-77
2022/10/20 00:48:24;;;;;;;0.00;0.00;;;4.30;99.90;;;;;;5101670;28;20047;-76
2022/10/20 00:50:53;;;;;;;0.00;0.00;;;4.30;99.90;;;;;;5094736;28;20024;-76
2022/10/20 00:53:27;;;;;;;0.20;0.20;;;4.20;99.90;;;;;;5076188;28;20036;-76
2022/10/20 00:55:55;;;;;;;0.00;0.00;;;4.20;99.90;;;;;;5094477;28;20112;-76
2022/10/20 00:58:22;;;;;;;0.00;0.00;;;4.20;99.90;;;;;;5103287;27;20032;-76
2022/10/20 01:00:51;;;;;;;0.30;0.30;;;4.30;99.90;;;;;;5094310;28;20516;-76
2022/10/20 01:03:24;;;;;;;0.00;0.00;;;4.20;99.90;;;;;;5078637;28;20044;-76
2022/10/20 01:05:51;;;;;;;0.10;0.10;;;4.10;99.90;;;;;;5114284;28;20019;-76
2022/10/20 01:08:17;;;;;;;0.00;0.00;;;4.20;99.90;;;;;;5113067;28;20497;-76
2022/10/20 01:11:08;;;;;;;0.00;0.00;;;4.20;99.90;;;;;;5101074;28;20035;-76
2022/10/20 01:13:42;;;;;;;1.77;1.00;;;4.30;99.90;;;;;;5094268;28;20038;-76
2022/10/20 01:16:21;;;;;;;2.38;2.28;;;4.60;99.90;;;;;;5087533;28;20766;-75
2022/10/20 01:18:53;;;;;;;0.00;0.00;;;4.70;99.90;;;;;;5108809;28;20079;-77
2022/10/20 01:21:49;;;;;;;0.00;0.00;;;4.70;99.90;;;;;;5114099;27;20019;-75
2022/10/20 01:24:43;;;;;;;0.00;0.00;;;4.70;99.90;;;;;;5094429;27;20039;-76
2022/10/20 01:27:24;;;;;;;0.30;0.30;;;4.70;99.90;;;;;;5110893;28;20023;-76
2022/10/20 01:30:11;;;;;;;0.95;0.95;;;4.60;99.90;;;;;;5094332;28;20027;-76
2022/10/20 01:33:02;;;;;;;0.00;0.00;;;4.60;99.90;;;;;;5109834;27;20019;-77
2022/10/20 01:35:52;;;;;;;0.22;0.22;;;4.70;99.90;;;;;;5101672;28;20493;-77
2022/10/20 01:38:27;;;;;;;0.00;0.00;;;4.70;99.90;;;;;;5098782;28;20023;-77
2022/10/20 01:41:05;;;;;;;0.00;0.00;;;4.60;99.90;;;;;;5106792;27;20054;-79
2022/10/20 01:43:35;;;;;;;0.00;0.00;;;4.40;99.90;;;;;;5102182;28;20131;-77
2022/10/20 01:46:02;;;;;;;0.00;0.00;;;4.40;99.90;;;;;;5075528;28;20486;-77
2022/10/20 01:48:32;;;;;;;0.57;0.25;;;4.60;99.90;;;;;;5082234;27;20039;-77
2022/10/20 01:51:00;;;;;;;0.00;0.00;;;4.80;99.90;;;;;;5098948;28;20016;-75
2022/10/20 01:53:27;;;;;;;0.00;0.00;;;4.90;99.90;;;;;;5080889;28;20492;-77
2022/10/20 01:55:55;;;;;;;3.60;1.45;;;4.90;99.90;;;;;;5103671;27;20060;-77
2022/10/20 01:58:45;;;;;;;1.65;1.55;;;5.00;99.90;;;;;;5104309;27;20095;-77
2022/10/20 02:01:24;;;;;;;2.83;2.60;;;5.10;99.90;;;;;;5108135;27;20408;-78
2022/10/20 02:03:57;;;;;;;0.30;0.30;;;5.20;99.90;;;;;;5093573;28;20023;-77
2022/10/20 02:06:45;;;;;;;1.95;0.90;;;5.30;99.90;;;;;;5105344;27;20019;-78
2022/10/20 02:09:25;;;;;;;0.00;0.00;;;5.40;99.90;;;;;;5104107;28;20019;-77
2022/10/20 02:11:57;;;;;;;0.08;0.08;;;5.40;99.90;;;;;;5076631;28;20069;-77
2022/10/20 02:14:25;;;;;;;0.00;0.00;;;5.40;99.90;;;;;;5097515;27;20050;-78
2022/10/20 02:16:58;;;;;;;0.00;0.00;;;5.60;99.90;;;;;;5086868;28;20494;-76
2022/10/20 02:19:29;;;;;;;0.25;0.25;;;5.60;99.90;;;;;;5104541;28;20094;-76
2022/10/20 02:21:56;;;;;;;0.00;0.00;;;5.70;99.90;;;;;;5086433;28;20019;-77
2022/10/20 02:24:33;;;;;;;0.00;0.00;;;5.80;99.90;;;;;;5104195;28;20022;-78
2022/10/20 02:27:03;;;;;;;1.35;1.27;;;5.90;99.90;;;;;;5081863;28;20020;-79
2022/10/20 02:29:37;;;;;;;0.00;0.00;;;5.90;99.90;;;;;;5105791;28;20074;-75
2022/10/20 02:32:05;;;;;;;0.00;0.00;;;6.00;99.90;;;;;;5100791;28;20033;-76
2022/10/20 02:34:31;;;;;;;0.00;0.00;;;6.00;99.90;;;;;;5104013;27;20110;-75
2022/10/20 02:36:58;;;;;;;0.00;0.00;;;6.20;99.90;;;;;;5099748;28;20042;-74
2022/10/20 02:39:33;;;;;;;0.00;0.00;;;6.40;99.90;;;;;;5093842;28;20172;-76
2022/10/20 02:41:59;;;;;;;0.00;0.00;;;6.50;99.90;;;;;;5089149;28;20036;-76
2022/10/20 02:44:25;;;;;;;0.00;0.00;;;6.60;99.90;;;;;;5081667;28;20024;-77
2022/10/20 02:46:52;;;;;;;0.00;0.00;;;6.70;99.90;;;;;;5070287;28;20031;-76
2022/10/20 02:49:20;;;;;;;0.10;0.10;;;6.70;99.90;;;;;;5102459;28;20032;-75
2022/10/20 02:51:46;;;;;;;0.57;0.40;;;6.90;99.90;;;;;;5097133;28;20110;-74
2022/10/20 02:54:12;;;;;;;0.00;0.00;;;6.90;99.90;;;;;;5102638;28;20032;-76
2022/10/20 02:56:38;;;;;;;0.00;0.00;;;7.00;99.90;;;;;;5096297;28;20085;-76
2022/10/20 02:59:04;;;;;;;0.00;0.00;;;7.00;99.90;;;;;;5105113;28;20395;-75
2022/10/20 03:01:31;;;;;;;0.00;0.00;;;7.10;99.90;;;;;;5101090;28;20148;-74
2022/10/20 03:03:58;;;;;;;0.00;0.00;;;7.20;99.90;;;;;;5102404;28;20059;-75
2022/10/20 03:06:25;;;;;;;0.00;0.00;;;7.20;99.90;;;;;;5082022;28;20469;-75
2022/10/20 03:08:51;;;;;;;1.35;1.25;;;7.30;99.90;;;;;;5087709;28;20031;-75
2022/10/20 03:11:17;;;;;;;1.85;1.75;;;7.50;99.90;;;;;;5102281;28;20365;-76
2022/10/20 03:13:43;;;;;;;14.63;4.80;;;7.60;99.90;;;;;;5090966;28;20118;-76
2022/10/20 03:16:09;;;;;;;0.00;0.00;;;7.70;99.90;;;;;;5106270;28;20529;-77
2022/10/20 03:18:36;;;;;;;0.20;0.20;;;7.70;99.90;;;;;;5085450;28;20051;-77
2022/10/20 03:21:02;;;;;;;4.07;3.67;;;7.90;99.90;;;;;;5103313;28;20064;-78
2022/10/20 03:23:28;;;;;;;0.43;0.43;;;8.00;99.90;;;;;;5105625;28;20023;-79
2022/10/20 03:26:01;;;;;;;4.35;3.58;;;7.90;99.90;;;;;;5104763;28;20063;-79
2022/10/20 03:28:27;;;;;;;14.23;12.43;;;8.00;99.90;;;;;;5106933;27;20065;-77
2022/10/20 03:30:54;;;;;;;2.15;1.63;;;8.00;99.90;;;;;;5108930;27;20488;-77
2022/10/20 03:33:20;;;;;;;5.43;4.78;;;8.00;99.90;;;;;;5114206;27;20089;-78
2022/10/20 03:35:46;;;;;;;16.17;9.77;;;8.20;99.90;;;;;;5091945;27;20395;-78
2022/10/20 03:38:12;;;;;;;9.80;5.13;;;8.10;99.90;;;;;;5109409;27;20035;-77
2022/10/20 03:40:38;;;;;;;2.95;2.75;;;8.20;99.90;;;;;;5109494;28;20027;-77
2022/10/20 03:43:05;;;;;;;3.88;3.53;;;8.20;99.90;;;;;;5110085;28;20047;-77
2022/10/20 03:45:31;;;;;;;4.65;4.25;;;8.30;99.90;;;;;;5092212;28;20016;-77
2022/10/20 03:47:58;;;;;;;20.10;8.80;;;8.40;99.90;;;;;;5100138;28;20510;-77
2022/10/20 03:50:24;;;;;;;11.18;2.72;;;8.60;99.90;;;;;;5100943;27;20032;-77
2022/10/20 03:52:51;;;;;;;5.22;1.98;;;8.50;99.90;;;;;;5116036;27;20023;-76
2022/10/20 03:55:21;;;;;;;0.00;0.00;;;8.50;99.90;;;;;;5124101;27;20128;-75
2022/10/20 03:57:47;;;;;;;14.27;8.98;;;8.50;99.90;;;;;;5122052;27;20027;-76
2022/10/20 04:00:13;;;;;;;10.82;5.85;;;8.50;99.90;;;;;;5126423;27;20452;-76
2022/10/20 04:02:43;;;;;;;7.53;4.75;;;8.60;99.90;;;;;;5134559;27;20027;-75
2022/10/20 04:05:16;;;;;;;3.15;2.45;;;8.70;99.90;;;;;;5112926;27;20030;-76
2022/10/20 04:07:43;;;;;;;3.42;2.30;;;8.70;99.90;;;;;;5124513;27;20028;-75
2022/10/20 04:10:10;;;;;;;2.42;1.52;;;8.70;99.90;;;;;;5129718;27;20371;-77
2022/10/20 04:12:36;;;;;;;1.05;0.95;;;8.90;99.90;;;;;;5133471;27;20019;-75
2022/10/20 04:15:04;;;;;;;10.00;7.90;;;8.90;99.90;;;;;;5111787;27;20103;-76
2022/10/20 04:17:30;;;;;;;4.38;3.15;;;8.90;99.90;;;;;;5132966;27;20031;-76
2022/10/20 04:19:56;;;;;;;6.03;2.63;;;8.90;99.90;;;;;;5113169;27;20385;-76
2022/10/20 04:22:22;;;;;;;26.00;9.63;;;9.00;99.90;;;;;;5134561;27;20119;-77
2022/10/20 04:24:49;;;;;;;12.50;7.05;;;9.00;99.90;;;;;;5127263;27;20099;-76
2022/10/20 04:27:15;;;;;;;1.05;1.00;;;9.00;99.90;;;;;;5128019;27;20068;-76
2022/10/20 04:29:41;;;;;;;17.05;4.30;;;9.00;99.90;;;;;;5129658;27;20023;-77
2022/10/20 04:32:07;;;;;;;9.68;5.95;;;9.30;99.90;;;;;;5126943;27;20106;-73
2022/10/20 04:34:33;;;;;;;12.40;5.43;;;9.20;99.90;;;;;;5132320;27;20019;-76
2022/10/20 04:36:59;;;;;;;12.68;8.45;;;9.40;99.90;;;;;;5136344;27;20026;-73
2022/10/20 04:39:26;;;;;;;19.30;7.80;;;9.50;99.90;;;;;;5131875;27;20023;-75
2022/10/20 04:41:52;;;;;;;8.63;5.22;;;9.40;99.90;;;;;;5110128;27;20024;-75
2022/10/20 04:44:18;;;;;;;2.67;1.67;;;9.30;99.90;;;;;;5131342;27;20214;-73
2022/10/20 04:46:44;;;;;;;0.57;0.52;;;;;;;;;;5116144;27;20110;-73
2022/10/20 04:49:11;;;;;;;8.43;3.78;;;;;;;;;;5129404;27;20111;-77
2022/10/20 04:51:40;;;;;;;3.78;1.98;;;;;;;;;;5130555;27;20026;-74
2022/10/20 04:54:06;;;;;;;0.63;0.63;;;;;;;;;;5128874;27;20469;-75
2022/10/20 04:56:33;;;;;;;16.35;8.30;;;;;;;;;;5115444;27;20542;-73
2022/10/20 04:58:59;;;;;;;3.42;2.47;;;;;;;;;;5128968;27;20031;-73
2022/10/20 05:01:27;;;;;;;1.35;1.25;;;;;;;;;;5126659;27;20031;-73
2022/10/20 05:03:57;;;;;;;0.70;0.60;;;;;;;;;;5127070;27;20080;-74
2022/10/20 05:06:24;;;;;;;1.45;1.35;;;;;;;;;;5130902;27;20015;-74
2022/10/20 05:08:52;;;;;;;9.77;4.53;;;;;;;;;;5132014;27;20055;-74
2022/10/20 05:11:19;;;;;;;10.70;5.60;;;;;;;;;;5131693;27;20051;-75
2022/10/20 05:13:45;;;;;;;11.55;3.97;;;;;;;;;;5107917;27;20050;-74
2022/10/20 05:16:12;;;;;;;10.68;3.33;;;;;;;;;;5126768;27;20477;-75
2022/10/20 05:18:42;;;;;;;16.65;7.78;;;;;;;;;;5127868;27;20019;-75
2022/10/20 05:21:10;;;;;;;5.90;3.17;;;;;;;;;;5125876;27;20047;-73
2022/10/20 05:23:37;;;;;;;3.15;2.72;;;;;;;;;;5129154;27;20489;-73
2022/10/20 05:26:04;;;;;;;8.75;3.70;;;;;;;;;;5147104;27;20027;-75
2022/10/20 05:28:31;;;;;;;6.22;4.07;;;;;;;;;;5137547;27;20072;-75
2022/10/20 05:31:03;;;;;;;6.07;3.83;;;;;;;;;;5130045;27;20023;-76
2022/10/20 05:33:30;;;;;;;12.90;4.55;;;;;;;;;;5144437;27;20072;-75
2022/10/20 05:35:56;;;;;;;2.53;2.33;;;;;;;;;;5146193;27;20043;-75
2022/10/20 05:38:22;;;;;;;3.90;2.15;;;;;;;;;;5145722;27;20183;-75
2022/10/20 05:40:49;;;;;;;4.93;3.50;;;;;;;;;;5112784;27;20038;-73
2022/10/20 05:43:15;;;;;;;2.05;1.92;;;;;;;;;;5110392;27;20039;-74
2022/10/20 05:45:41;;;;;;;6.13;3.65;;;;;;;;;;5124070;27;20039;-74
2022/10/20 05:48:08;;;;;;;0.32;0.32;;;;;;;;;;5125728;27;20355;-74
2022/10/20 05:50:34;;;;;;;1.67;1.08;;;;;;;;;;5128110;27;20030;-80
2022/10/20 05:53:00;;;;;;;3.97;3.00;;;;;;;;;;5131030;27;20496;-77
2022/10/20 05:55:27;;;;;;;3.45;1.08;;;;;;;;;;5121237;27;20028;-75
2022/10/20 05:57:54;;;;;;;4.65;2.08;;;;;;;;;;5110765;27;20027;-78
2022/10/20 06:00:28;;;;;;;3.13;2.65;;;;;;;;;;5108118;27;20155;-76
2022/10/20 06:02:55;;;;;;;3.22;2.65;;;;;;;;;;5130445;27;20019;-74
2022/10/20 06:05:21;;;;;;;11.50;2.85;;;;;;;;;;5126604;27;20050;-74
2022/10/20 06:07:47;;;;;;;5.35;2.95;;;;;;;;;;5128896;27;20059;-75
2022/10/20 06:10:14;;;;;;;5.35;2.75;;;;;;;;;;5128811;27;20406;-76
2022/10/20 06:12:40;;;;;;;5.88;3.33;;;;;;;;;;5130142;27;20019;-75
2022/10/20 06:15:07;;;;;;;9.98;4.88;;;;;;;;;;5130350;27;20027;-77
2022/10/20 06:17:33;;;;;;;2.70;1.73;;;;;;;;;;5125320;27;20580;-74
2022/10/20 06:20:00;;;;;;;4.05;0.93;;;;;;;;;;5112120;27;20117;-74
2022/10/20 06:22:26;;;;;;;6.38;5.95;;;;;;;;;;5126029;27;20106;-75
2022/10/20 06:24:52;;;;;;;1.98;1.83;;;;;;;;;;5120321;27;20088;-74
2022/10/20 06:27:19;;;;;;;3.28;2.83;;;;;;;;;;5122077;27;20072;-77
2022/10/20 06:29:45;;;;;;;8.32;2.33;;;;;;;;;;5121592;27;20380;-75
2022/10/20 06:32:17;;;;;;;2.53;0.77;;;;;;;;;;5105219;27;20087;-75
2022/10/20 06:34:43;;;;;;;3.10;2.90;;;;;;;;;;5118147;27;20135;-75
2022/10/20 06:37:10;;;;;;;4.43;3.55;;;;;;;;;;5114776;27;20047;-75
2022/10/20 06:39:36;;;;;;;6.40;3.42;;;;;;;;;;5120135;27;20031;-74
2022/10/20 06:42:04;;;;;;;0.63;0.38;;;;;;;;;;5106762;27;20040;-75
2022/10/20 06:44:30;;;;;;;3.95;3.05;;;;;;;;;;5118427;27;20161;-74
2022/10/20 06:46:57;;;;;;;4.18;2.75;;;;;;;;;;5119452;27;20075;-74
2022/10/20 06:49:23;;;;;;;2.22;1.90;;;;;;;;;;5128829;27;20023;-78
2022/10/20 06:51:49;;;;;;;0.63;0.63;;;;;;;;;;5124286;27;20015;-79
2022/10/20 06:54:16;;;;;;;2.13;1.80;;;;;;;;;;5123857;27;20024;-80
2022/10/20 06:56:42;;;;;;;4.97;2.95;;;;;;;;;;5127601;27;20035;-77
2022/10/20 06:59:09;;;;;;;2.88;1.02;;;;;;;;;;5120852;27;20032;-80
2022/10/20 07:01:36;;;;;;;1.33;1.25;;;;;;;;;;5127624;27;20389;-79
2022/10/20 07:04:04;;;;;;;8.02;4.97;;;;;;;;;;5125284;27;20486;-79
2022/10/20 07:06:32;;;;;;;2.63;2.40;;;;;;;;;;5106150;27;20156;-79
2022/10/20 07:08:58;;;;;;;4.75;2.88;;;;;;;;;;5113322;27;20075;-77
2022/10/20 07:11:26;;;;;;;8.18;2.38;;;;;;;;;;5113268;27;20492;-79
2022/10/20 07:13:52;;;;;;;8.45;5.43;;;;;;;;;;5125616;27;20031;-79
2022/10/20 07:16:20;;;;;;;3.65;2.20;;;;;;;;;;5131369;27;20103;-80
2022/10/20 07:18:47;;;;;;;8.77;3.22;;;;;;;;;;5133482;27;20027;-79
2022/10/20 07:21:18;;;;;;;0.98;0.82;;;;;;;;;;5118225;27;20020;-80
2022/10/20 07:23:44;;;;;;;8.00;3.63;;;;;;;;;;5124638;27;20024;-77
2022/10/20 07:26:12;;;;;;;5.35;3.22;;;;;;;;;;5124365;27;20454;-79
2022/10/20 07:28:40;;;;;;;5.35;2.33;;;;;;;;;;5105124;27;20015;-79
2022/10/20 07:31:10;;;;;;;4.05;2.70;;;;;;;;;;5127501;27;20054;-79
2022/10/20 07:33:37;;;;;;;7.20;4.00;;;;;;;;;;5106737;27;20495;-80
2022/10/20 07:36:18;;;;;;;0.00;0.00;;;;;;;;;;5124482;27;20030;-79
2022/10/20 07:38:45;;;;;;;3.40;1.90;;;;;;;;;;5132792;27;20034;-79
2022/10/20 07:41:12;;;;;;;8.68;5.40;;;;;;;;;;5149120;27;20358;-80
2022/10/20 07:43:39;;;;;;;8.07;3.72;;;;;;;;;;5094284;28;20116;-79
2022/10/20 07:46:06;;;;;;;8.10;1.88;;;;;;;;;;5071831;28;20059;-78
2022/10/20 07:48:32;;;;;;;4.30;2.63;;;;;;;;;;5069834;28;20024;-79
2022/10/20 07:51:17;;;;;;;16.77;4.35;;;;;;;;;;5093608;28;20047;-79
2022/10/20 07:53:44;;;;;;;5.53;2.60;;;;;;;;;;5092269;28;20024;-79
2022/10/20 07:56:10;;;;;;;5.30;1.90;;;;;;;;;;5092005;28;20028;-79
2022/10/20 07:58:36;;;;;;;14.20;5.65;;;;;;;;;;5088338;28;20455;-79
2022/10/20 08:01:03;;;;;;;1.10;1.05;;;;;;;;;;5090063;28;20116;-79
2022/10/20 08:03:30;;;;;;;0.70;0.47;;;;;;;;;;5072502;28;20039;-79
2022/10/20 08:05:56;;;;;;;4.63;1.65;;;;;;;;;;5063751;28;20016;-78
2022/10/20 08:08:22;;;;;;;1.17;1.17;;;;;;;;;;5060559;28;20020;-79
2022/10/20 08:10:49;;;;;;;0.17;0.13;;;;;;;;;;5070883;28;20115;-78
2022/10/20 08:13:15;;;;;;;3.80;2.20;;;;;;;;;;5085499;28;20020;-79
2022/10/20 08:15:42;;;;;;;5.80;5.30;;;;;;;;;;5083432;28;20016;-79
2022/10/20 08:18:08;;;;;;;4.40;2.15;;;;;;;;;;5089323;28;20481;-80
2022/10/20 08:20:34;;;;;;;8.43;5.20;;;;;;;;;;5101869;28;20024;-78
2022/10/20 08:23:01;;;;;;;10.75;5.10;;;;;;;;;;5105077;28;20086;-78
2022/10/20 08:25:27;;;;;;;5.55;2.63;;;;;;;;;;5087144;28;20021;-80
2022/10/20 08:27:54;;;;;;;2.33;2.13;;;;;;;;;;5087148;28;20027;-77
2022/10/20 08:30:20;;;;;;;15.30;3.40;;;;;;;;;;5058963;28;20423;-78
2022/10/20 08:32:50;;;;;;;3.30;3.00;;;;;;;;;;5093169;28;20066;-78
2022/10/20 08:35:16;;;;;;;1.42;1.23;;;;;;;;;;5089071;28;20565;-77
2022/10/20 08:37:43;;;;;;;0.65;0.45;;;;;;;;;;5087165;28;20493;-78
2022/10/20 08:40:13;;;;;;;2.53;1.77;;;;;;;;;;5086571;28;20047;-77
2022/10/20 08:42:43;;;;;;;9.65;3.42;;;;;;;;;;5094157;27;20058;-77
2022/10/20 08:45:20;;;;;;;0.80;0.80;;;;;;;;;;5104951;28;20024;-79
2022/10/20 08:47:48;;;;;;;5.88;3.67;;;;;;;;;;5105501;28;20054;-77
2022/10/20 08:50:16;;;;;;;0.93;0.40;;;;;;;;;;5111226;28;20030;-81
2022/10/20 08:52:43;;;;;;;3.38;2.15;;;;;;;;;;5106787;27;20027;-78
2022/10/20 08:55:39;;;;;;;2.33;1.75;;;;;;;;;;5089795;28;20059;-79
2022/10/20 08:58:07;;;;;;;9.77;4.22;;;;;;;;;;5067625;28;20465;-77
2022/10/20 09:00:36;;;;;;;1.38;1.23;;;;;;;;;;5106851;27;20073;-77
2022/10/20 09:03:13;;;;;;;5.10;1.65;;;;;;;;;;5103134;28;20028;-77
2022/10/20 09:05:41;;;;;;;1.30;1.30;;;;;;;;;;5106230;27;20024;-77
2022/10/20 09:08:08;;;;;;;0.45;0.40;;;;;;;;;;5105391;27;20024;-77
2022/10/20 09:10:34;;;;;;;0.00;0.00;;;;;;;;;;5088533;27;20071;-75
2022/10/20 09:13:01;;;;;;;0.32;0.22;;;;;;;;;;5104930;27;20026;-74
2022/10/20 09:15:28;;;;;;;2.80;2.17;;;;;;;;;;5106621;27;20031;-76
2022/10/20 09:17:59;;;;;;;0.98;0.85;;;;;;;;;;5103676;28;20027;-75
2022/10/20 09:20:37;;;;;;;9.20;4.32;;;;;;;;;;5106695;28;20111;-76
2022/10/20 09:23:03;;;;;;;5.93;2.47;;;;;;;;;;5107005;28;21044;-76
2022/10/20 09:25:30;;;;;;;1.50;1.40;;;;;;;;;;5107343;28;20024;-77
2022/10/20 09:27:57;;;;;;;0.88;0.60;;;;;;;;;;5102344;27;20024;-76
2022/10/20 09:30:25;;;;;;;5.32;3.40;;;;;;;;;;5105933;27;20245;-77
2022/10/20 09:32:51;;;;;;;0.00;0.00;;;;;;;;;;5103444;28;20062;-77
2022/10/20 09:35:20;;;;;;;3.85;1.75;;;;;;;;;;5109872;27;20043;-76
2022/10/20 09:37:52;;;;;;;2.78;1.98;;;;;;;;;;5087735;27;20027;-77
2022/10/20 09:40:19;;;;;;;0.10;0.10;;;;;;;;;;5110786;28;20019;-75
2022/10/20 09:42:50;;;;;;;1.90;0.75;;;;;;;;;;5095678;28;20059;-75
2022/10/20 09:45:20;;;;;;;0.45;0.45;;;;;;;;;;5073606;28;21576;-77
2022/10/20 09:47:48;;;;;;;4.38;2.80;;;;;;;;;;5092835;28;20069;-78
2022/10/20 09:50:20;;;;;;;0.30;0.30;;;;;;;;;;5091787;28;20027;-79
2022/10/20 09:52:47;;;;;;;2.13;0.85;;;;;;;;;;5092168;28;20174;-78
2022/10/20 09:55:30;;;;;;;3.85;3.55;;;;;;;;;;5096008;28;20020;-78
2022/10/20 09:57:58;;;;;;;0.00;0.00;;;;;;;;;;5072957;28;20025;-79
2022/10/20 10:00:26;;;;;;;4.05;0.77;;;;;;;;;;5096738;28;20032;-77
2022/10/20 10:03:13;;;;;;;0.43;0.32;;;;;;;;;;5086781;28;20123;-79
2022/10/20 10:05:39;;;;;;;13.75;7.13;;;;;;;;;;5075596;28;20028;-78
2022/10/20 10:08:12;;;;;;;4.50;3.70;;;;;;;;;;5092995;28;20017;-78
2022/10/20 10:10:39;;;;;;;1.02;1.02;;;;;;;;;;5081997;28;20024;-77
2022/10/20 10:13:05;;;;;;;0.00;0.00;;;;;;;;;;5096460;28;20482;-76
2022/10/20 10:15:36;;;;;;;0.15;0.15;;;;;;;;;;5084985;28;20107;-76
2022/10/20 10:18:20;;;;;;;0.00;0.00;;;;;;;;;;5091343;28;20027;-77
2022/10/20 10:20:46;;;;;;;2.13;2.00;;;;;;;;;;5085918;28;20548;-75
2022/10/20 10:23:24;;;;;;;8.45;3.35;;;;;;;;;;5092251;28;20023;-76
2022/10/20 10:25:51;;;;;;;0.10;0.10;;;;;;;;;;5086206;28;20565;-77
2022/10/20 10:28:20;;;;;;;0.00;0.00;;;;;;;;;;5089285;28;20031;-78
2022/10/20 10:30:47;;;;;;;0.65;0.65;;;;;;;;;;5072975;28;20020;-77
2022/10/20 10:33:34;;;;;;;0.00;0.00;;;;;;;;;;5090958;28;20466;-79
2022/10/20 10:36:06;;;;;;;0.68;0.68;;;;;;;;;;5074265;28;20036;-79
2022/10/20 10:38:33;;;;;;;0.17;0.17;;;;;;;;;;5091545;28;20033;-78
2022/10/20 10:41:14;;;;;;;0.28;0.28;;;;;;;;;;5078760;28;20695;-78
2022/10/20 10:43:56;;;;;;;0.00;0.00;;;;;;;;;;5085911;28;20105;-76
2022/10/20 10:46:35;;;;;;;3.25;0.88;;;;;;;;;;5081449;28;20016;-74
2022/10/20 10:49:14;;;;;;;0.75;0.75;;;;;;;;;;5084566;28;20023;-74
2022/10/20 10:51:46;;;;;;;3.45;3.28;;;;;;;;;;5072298;28;20478;-77
2022/10/20 10:54:31;;;;;;;0.00;0.00;;;;;;;;;;5085934;28;20036;-74
2022/10/20 10:57:00;;;;;;;0.15;0.15;;;;;;;;;;5082151;28;20111;-74
2022/10/20 10:59:32;;;;;;;0.00;0.00;;;;;;;;;;5097132;28;20035;-75
2022/10/20 11:02:17;;;;;;;0.00;0.00;;;;;;;;;;5088743;28;20394;-73
2022/10/20 11:04:52;;;;;;;0.00;0.00;;;;;;;;;;5071974;28;20046;-76
2022/10/20 11:07:30;;;;;;;0.32;0.30;;;;;;;;;;5088891;28;20043;-75
2022/10/20 11:09:56;;;;;;;2.08;1.73;;;;;;;;;;5094582;28;20052;-74
2022/10/20 11:12:41;;;;;;;0.10;0.10;;;;;;;;;;5078553;28;20089;-74
2022/10/20 11:15:26;;;;;;;0.00;0.00;;;;;;;;;;5090083;28;20024;-73
2022/10/20 11:18:17;;;;;;;0.40;0.40;;;;;;;;;;5090341;28;20024;-74
2022/10/20 11:21:01;;;;;;;3.03;1.40;;;;;;;;;;5085137;28;20102;-74
2022/10/20 11:23:37;;;;;;;2.83;1.75;;;;;;;;;;5078709;28;20060;-75
2022/10/20 11:26:16;;;;;;;0.08;0.08;;;;;;;;;;5073796;28;20028;-73
2022/10/20 11:28:44;;;;;;;0.63;0.63;;;;;;;;;;5088658;28;20572;-74
2022/10/20 11:31:18;;;;;;;0.00;0.00;;;;;;;;;;5090345;28;20024;-74
2022/10/20 11:33:48;;;;;;;0.00;0.00;;;;;;;;;;5064344;28;20027;-72
2022/10/20 11:36:18;;;;;;;0.77;0.77;;;;;;;;;;5093999;28;20080;-74
2022/10/20 11:38:48;;;;;;;0.08;0.08;;;;;;;;;;5090564;28;20100;-74
2022/10/20 11:41:22;;;;;;;0.13;0.13;;;;;;;;;;5095890;28;20028;-75
2022/10/20 11:43:58;;;;;;;2.33;2.22;;;;;;;;;;5101525;28;20035;-79
2022/10/20 11:46:30;;;;;;;0.00;0.00;;;;;;;;;;5099691;28;20077;-79
2022/10/20 11:48:57;;;;;;;0.00;0.00;;;;;;;;;;5086073;28;20040;-76
2022/10/20 11:51:32;;;;;;;0.00;0.00;;;;;;;;;;5108329;27;20373;-78
2022/10/20 11:54:07;;;;;;;0.00;0.00;;;;;;;;;;5100064;27;20027;-78
2022/10/20 11:56:43;;;;;;;0.00;0.00;;;;;;;;;;5106724;28;20031;-78
2022/10/20 11:59:10;;;;;;;0.00;0.00;;;;;;;;;;5095560;28;20062;-78
2022/10/20 12:01:39;;;;;;;0.00;0.00;;;;;;;;;;5128502;27;20034;-78
2022/10/20 12:04:20;;;;;;;0.00;0.00;;;;;;;;;;5131776;27;20145;-79
2022/10/20 12:07:02;;;;;;;0.00;0.00;;;;;;;;;;5114737;27;20079;-78
2022/10/20 12:09:29;;;;;;;0.00;0.00;;;;;;;;;;5129453;27;20074;-78
2022/10/20 12:11:56;;;;;;;0.00;0.00;;;;;;;;;;5133895;27;20036;-78
2022/10/20 12:14:48;;;;;;;0.00;0.00;;;;;;;;;;5120001;27;20035;-78
2022/10/20 12:17:20;;;;;;;0.00;0.00;;;;;;;;;;5103437;28;20083;-77
2022/10/20 12:19:48;;;;;;;0.00;0.00;;;;;;;;;;5083221;28;20020;-78
2022/10/20 12:22:15;;;;;;;0.00;0.00;;;;;;;;;;5108671;27;20024;-78
2022/10/20 12:24:50;;;;;;;0.03;0.03;;;;;;;;;;5108461;27;20012;-77
2022/10/20 12:27:18;;;;;;;0.00;0.00;;;;;;;;;;5106604;27;20059;-78
2022/10/20 12:29:46;;;;;;;0.00;0.00;;;;;;;;;;5111743;27;20115;-75
2022/10/20 12:32:25;;;;;;;0.00;0.00;;;;;;;;;;5087969;28;20105;-76
2022/10/20 12:34:52;;;;;;;0.00;0.00;;;;;;;;;;5099484;28;20382;-76
2022/10/20 12:37:20;;;;;;;15.23;14.05;;;;;;;;;;5101234;28;20023;-75
2022/10/20 12:39:47;;;;;;;1.70;1.58;;;;;;;;;;5093092;28;20073;-75
2022/10/20 12:42:19;;;;;;;0.00;0.00;;;;;;;;;;5105257;28;20047;-74
2022/10/20 12:44:46;;;;;;;0.00;0.00;;;;;;;;;;5102577;28;20051;-75
2022/10/20 12:47:22;;;;;;;0.00;0.00;;;;;;;;;;5093414;28;20020;-75
2022/10/20 12:49:54;;;;;;;0.00;0.00;;;;;;;;;;5102603;27;20039;-75
2022/10/20 12:52:21;;;;;;;0.00;0.00;;;;;;;;;;5084837;28;20441;-74
2022/10/20 12:54:53;;;;;;;0.00;0.00;;;;;;;;;;5105794;28;20031;-76
2022/10/20 12:57:25;;;;;;;0.95;0.95;;;;;;;;;;5105401;27;20099;-75
2022/10/20 12:59:52;;;;;;;0.00;0.00;;;;;;;;;;5100256;27;20044;-74
2022/10/20 13:02:19;;;;;;;5.30;5.07;;;;;;;;;;5109034;28;20024;-73
2022/10/20 13:04:52;;;;;;;0.28;0.28;;;;;;;;;;5094925;28;20026;-74
2022/10/20 13:07:37;;;;;;;0.00;0.00;;;;;;;;;;5095447;28;20113;-74
2022/10/20 13:10:23;;;;;;;0.00;0.00;;;;;;;;;;5080986;28;20023;-73
2022/10/20 13:12:49;;;;;;;0.03;0.03;;;;;;;;;;5096257;28;20478;-73
2022/10/20 13:15:19;;;;;;;25.52;23.48;;;;;;;;;;5106899;28;20032;-73
2022/10/20 13:17:55;;;;;;;2.58;2.47;;;;;;;;;;5076636;28;20382;-75
2022/10/20 13:20:27;;;;;;;1.85;1.85;;;;;;;;;;5100883;27;20028;-75
2022/10/20 13:22:54;;;;;;;0.00;0.00;;;;;;;;;;5107111;27;20031;-75
2022/10/20 13:25:33;;;;;;;0.00;0.00;;;;;;;;;;5112897;28;20085;-75
2022/10/20 13:28:04;;;;;;;0.00;0.00;;;;;;;;;;5096828;28;20016;-76
2022/10/20 13:30:31;;;;;;;0.00;0.00;;;;;;;;;;5095496;28;20033;-77
2022/10/20 13:32:57;;;;;;;0.00;0.00;;;;;;;;;;5094898;28;20020;-76
2022/10/20 13:35:36;;;;;;;0.00;0.00;;;;;;;;;;5094521;28;20031;-76
2022/10/20 13:38:02;;;;;;;0.00;0.00;;;;;;;;;;5076269;28;20052;-76
2022/10/20 13:40:34;;;;;;;0.00;0.00;;;;;;;;;;5094351;28;20032;-76
2022/10/20 13:43:19;;;;;;;0.00;0.00;;;;;;;;;;5094061;28;20047;-77
2022/10/20 13:45:51;;;;;;;10.57;10.02;;;;;;;;;;5075907;28;20382;-76
2022/10/20 13:48:18;;;;;;;0.00;0.00;;;;;;;;;;5094310;28;20027;-75
2022/10/20 13:50:46;;;;;;;0.32;0.32;;;;;;;;;;5075811;28;20024;-75
2022/10/20 13:53:19;;;;;;;0.00;0.00;;;;;;;;;;5075621;28;20031;-75
2022/10/20 13:55:53;;;;;;;0.05;0.05;;;;;;;;;;5094310;28;20024;-76
2022/10/20 13:58:21;;;;;;;2.20;2.10;;;;;;;;;;5087706;27;20572;-74
2022/10/20 14:01:15;;;;;;;0.03;0.03;;;;;;;;;;5126937;27;20039;-74
2022/10/20 14:03:43;;;;;;;0.00;0.00;;;;;;;;;;5112433;27;20054;-74
2022/10/20 14:06:28;;;;;;;0.00;0.00;;;;;;;;;;5120698;27;20225;-75
2022/10/20 14:08:56;;;;;;;1.17;1.17;;;;;;;;;;5092688;28;20028;-75
2022/10/20 14:11:23;;;;;;;0.00;0.00;;;;;;;;;;5093588;28;20016;-74
2022/10/20 14:13:50;;;;;;;0.40;0.40;;;;;;;;;;5093622;28;20028;-75
2022/10/20 14:16:19;;;;;;;0.25;0.25;;;;;;;;;;5075539;28;20359;-74
2022/10/20 14:18:58;;;;;;;0.00;0.00;;;;;;;;;;5093456;28;20024;-75
2022/10/20 14:21:27;;;;;;;0.47;0.47;;;;;;;;;;5075088;28;20024;-74